sensor_id;sensor_type;location;lat;lon;timestamp;temperature;humidity
13296;DHT22;64850;60.390;-1.374;2022-12-07T00:01:31;2.40;99.90
13296;DHT22;64850;60.390;-1.374;2022-12-07T00:04:01;2.60;99.90
13296;DHT22;64850;60.390;-1.374;2022-12-07T00:06:41;2.40;99.90
13296;DHT22;64850;60.390;-1.374;2022-12-07T00:09:15;2.60;99.90
13296;DHT22;64850;60.390;-1.374;2022-12-07T00:11:42;3.00;99.90
13296;DHT22;64850;60.390;-1.374;2022-12-07T00:14:14;2.40;99.90
13296;DHT22;64850;60.390;-1.374;2022-12-07T00:16:41;2.40;99.90
13296;DHT22;64850;60.390;-1.374;2022-12-07T00:19:07;2.40;99.90
13296;DHT22;64850;60.390;-1.374;2022-12-07T00:21:34;2.60;99.90
13296;DHT22;64850;60.390;-1.374;2022-12-07T00:24:01;2.50;99.90
13296;DHT22;64850;60.390;-1.374;2022-12-07T00:26:33;2.40;99.90
13296;DHT22;64850;60.390;-1.374;2022-12-07T00:29:02;2.10;99.90
13296;DHT22;64850;60.390;-1.374;2022-12-07T00:31:30;1.20;99.90
13296;DHT22;64850;60.390;-1.374;2022-12-07T00:33:57;1.30;99.90
13296;DHT22;64850;60.390;-1.374;2022-12-07T00:36:24;1.40;99.90
13296;DHT22;64850;60.390;-1.374;2022-12-07T00:38:50;1.60;99.90
13296;DHT22;64850;60.390;-1.374;2022-12-07T00:41:19;1.80;99.90
13296;DHT22;64850;60.390;-1.374;2022-12-07T00:43:49;1.80;99.90
13296;DHT22;64850;60.390;-1.374;2022-12-07T00:46:16;1.90;99.90
13296;DHT22;64850;60.390;-1.374;2022-12-07T00:48:43;2.00;99.90
13296;DHT22;64850;60.390;-1.374;2022-12-07T00:51:11;1.90;99.90
13296;DHT22;64850;60.390;-1.374;2022-12-07T00:53:38;1.90;99.90
13296;DHT22;64850;60.390;-1.374;2022-12-07T00:56:08;2.00;99.90
13296;DHT22;64850;60.390;-1.374;2022-12-07T00:58:34;1.90;99.90
13296;DHT22;64850;60.390;-1.374;2022-12-07T01:01:01;2.00;99.90
13296;DHT22;64850;60.390;-1.374;2022-12-07T01:03:28;3.20;99.90
13296;DHT22;64850;60.390;-1.374;2022-12-07T01:05:55;2.20;99.90
13296;DHT22;64850;60.390;-1.374;2022-12-07T01:08:22;2.30;99.90
13296;DHT22;64850;60.390;-1.374;2022-12-07T01:10:48;2.30;99.90
13296;DHT22;64850;60.390;-1.374;2022-12-07T01:13:15;2.20;99.90
13296;DHT22;64850;60.390;-1.374;2022-12-07T01:15:42;2.10;99.90
13296;DHT22;64850;60.390;-1.374;2022-12-07T01:18:08;2.20;99.90
13296;DHT22;64850;60.390;-1.374;2022-12-07T01:20:34;2.00;99.90
13296;DHT22;64850;60.390;-1.374;2022-12-07T01:23:00;2.10;99.90
13296;DHT22;64850;60.390;-1.374;2022-12-07T01:25:27;2.10;99.90
13296;DHT22;64850;60.390;-1.374;2022-12-07T01:27:54;1.40;99.90
13296;DHT22;64850;60.390;-1.374;2022-12-07T01:30:20;2.10;99.90
13296;DHT22;64850;60.390;-1.374;2022-12-07T01:32:45;2.20;99.90
13296;DHT22;64850;60.390;-1.374;2022-12-07T01:35:11;2.30;99.90
13296;DHT22;64850;60.390;-1.374;2022-12-07T01:37:38;2.20;99.90
13296;DHT22;64850;60.390;-1.374;2022-12-07T01:40:06;2.10;99.90
13296;DHT22;64850;60.390;-1.374;2022-12-07T01:42:32;2.00;99.90
13296;DHT22;64850;60.390;-1.374;2022-12-07T01:47:55;1.90;99.90
13296;DHT22;64850;60.390;-1.374;2022-12-07T01:50:22;2.00;99.90
13296;DHT22;64850;60.390;-1.374;2022-12-07T01:52:50;2.10;99.90
13296;DHT22;64850;60.390;-1.374;2022-12-07T01:55:18;2.10;99.90
13296;DHT22;64850;60.390;-1.374;2022-12-07T01:57:49;2.20;99.90
13296;DHT22;64850;60.390;-1.374;2022-12-07T02:00:16;1.70;99.90
13296;DHT22;64850;60.390;-1.374;2022-12-07T02:05:28;1.70;99.90
13296;DHT22;64850;60.390;-1.374;2022-12-07T02:07:55;1.90;99.90
13296;DHT22;64850;60.390;-1.374;2022-12-07T02:10:25;2.00;99.90
13296;DHT22;64850;60.390;-1.374;2022-12-07T02:21:24;2.10;99.90
13296;DHT22;64850;60.390;-1.374;2022-12-07T02:30:06;2.10;99.90
13296;DHT22;64850;60.390;-1.374;2022-12-07T02:35:17;2.00;99.90
13296;DHT22;64850;60.390;-1.374;2022-12-07T02:38:04;2.10;99.90
13296;DHT22;64850;60.390;-1.374;2022-12-07T02:46:30;2.00;99.90
13296;DHT22;64850;60.390;-1.374;2022-12-07T02:48:57;2.10;99.90
13296;DHT22;64850;60.390;-1.374;2022-12-07T02:51:25;2.30;99.90
13296;DHT22;64850;60.390;-1.374;2022-12-07T02:53:51;2.30;99.90
13296;DHT22;64850;60.390;-1.374;2022-12-07T02:57:14;2.30;99.90
13296;DHT22;64850;60.390;-1.374;2022-12-07T02:59:49;2.40;99.90
13296;DHT22;64850;60.390;-1.374;2022-12-07T03:08:14;2.40;99.90
13296;DHT22;64850;60.390;-1.374;2022-12-07T03:13:39;2.20;99.90
13296;DHT22;64850;60.390;-1.374;2022-12-07T03:16:17;1.90;99.90
13296;DHT22;64850;60.390;-1.374;2022-12-07T03:18:51;1.40;99.90
13296;DHT22;64850;60.390;-1.374;2022-12-07T03:21:22;1.30;99.90
13296;DHT22;64850;60.390;-1.374;2022-12-07T03:23:53;1.10;99.90
13296;DHT22;64850;60.390;-1.374;2022-12-07T03:26:22;1.10;99.90
13296;DHT22;64850;60.390;-1.374;2022-12-07T03:28:54;1.30;99.90
13296;DHT22;64850;60.390;-1.374;2022-12-07T03:31:55;1.40;99.90
13296;DHT22;64850;60.390;-1.374;2022-12-07T03:34:29;1.40;99.90
13296;DHT22;64850;60.390;-1.374;2022-12-07T03:37:11;1.30;99.90
13296;DHT22;64850;60.390;-1.374;2022-12-07T03:39:57;1.30;99.90
13296;DHT22;64850;60.390;-1.374;2022-12-07T03:42:25;1.30;99.90
13296;DHT22;64850;60.390;-1.374;2022-12-07T03:44:51;1.50;99.90
13296;DHT22;64850;60.390;-1.374;2022-12-07T03:47:32;1.60;99.90
13296;DHT22;64850;60.390;-1.374;2022-12-07T03:50:13;1.60;99.90
13296;DHT22;64850;60.390;-1.374;2022-12-07T03:52:47;1.80;99.90
13296;DHT22;64850;60.390;-1.374;2022-12-07T03:55:23;1.80;99.90
13296;DHT22;64850;60.390;-1.374;2022-12-07T03:57:54;1.80;99.90
13296;DHT22;64850;60.390;-1.374;2022-12-07T04:00:21;2.00;99.90
13296;DHT22;64850;60.390;-1.374;2022-12-07T04:02:47;2.00;99.90
13296;DHT22;64850;60.390;-1.374;2022-12-07T04:05:13;2.10;99.90
13296;DHT22;64850;60.390;-1.374;2022-12-07T04:07:39;2.10;99.90
13296;DHT22;64850;60.390;-1.374;2022-12-07T04:10:06;2.10;99.90
13296;DHT22;64850;60.390;-1.374;2022-12-07T04:12:33;1.70;99.90
13296;DHT22;64850;60.390;-1.374;2022-12-07T04:14:59;0.70;99.90
13296;DHT22;64850;60.390;-1.374;2022-12-07T04:17:25;1.50;99.90
13296;DHT22;64850;60.390;-1.374;2022-12-07T04:19:51;0.50;99.90
13296;DHT22;64850;60.390;-1.374;2022-12-07T04:22:17;0.40;99.90
13296;DHT22;64850;60.390;-1.374;2022-12-07T04:24:42;-1.60;99.90
13296;DHT22;64850;60.390;-1.374;2022-12-07T04:27:08;1.20;99.90
13296;DHT22;64850;60.390;-1.374;2022-12-07T04:29:34;1.10;99.90
13296;DHT22;64850;60.390;-1.374;2022-12-07T04:32:00;1.10;99.90
13296;DHT22;64850;60.390;-1.374;2022-12-07T04:34:26;1.00;99.90
13296;DHT22;64850;60.390;-1.374;2022-12-07T04:36:52;1.10;99.90
13296;DHT22;64850;60.390;-1.374;2022-12-07T04:39:29;1.00;99.90
13296;DHT22;64850;60.390;-1.374;2022-12-07T04:41:56;1.20;99.90
13296;DHT22;64850;60.390;-1.374;2022-12-07T04:44:23;1.30;99.90
13296;DHT22;64850;60.390;-1.374;2022-12-07T04:46:51;1.40;99.90
13296;DHT22;64850;60.390;-1.374;2022-12-07T04:49:17;1.00;99.90
13296;DHT22;64850;60.390;-1.374;2022-12-07T04:51:43;1.50;99.90
13296;DHT22;64850;60.390;-1.374;2022-12-07T04:54:09;1.60;99.90
13296;DHT22;64850;60.390;-1.374;2022-12-07T04:56:35;1.70;99.90
13296;DHT22;64850;60.390;-1.374;2022-12-07T04:59:02;1.70;99.90
13296;DHT22;64850;60.390;-1.374;2022-12-07T05:01:29;2.00;99.90
13296;DHT22;64850;60.390;-1.374;2022-12-07T05:03:55;0.70;99.90
13296;DHT22;64850;60.390;-1.374;2022-12-07T05:06:24;2.10;99.90
13296;DHT22;64850;60.390;-1.374;2022-12-07T05:08:50;2.20;99.90
13296;DHT22;64850;60.390;-1.374;2022-12-07T05:11:16;2.30;99.90
13296;DHT22;64850;60.390;-1.374;2022-12-07T05:14:02;2.40;99.90
13296;DHT22;64850;60.390;-1.374;2022-12-07T05:16:28;2.30;99.90
13296;DHT22;64850;60.390;-1.374;2022-12-07T05:18:54;2.20;99.90
13296;DHT22;64850;60.390;-1.374;2022-12-07T05:21:20;2.30;99.90
13296;DHT22;64850;60.390;-1.374;2022-12-07T05:23:46;2.20;99.90
13296;DHT22;64850;60.390;-1.374;2022-12-07T05:26:12;2.40;99.90
13296;DHT22;64850;60.390;-1.374;2022-12-07T05:28:38;2.30;99.90
13296;DHT22;64850;60.390;-1.374;2022-12-07T05:31:04;1.80;99.90
13296;DHT22;64850;60.390;-1.374;2022-12-07T05:33:30;2.30;99.90
13296;DHT22;64850;60.390;-1.374;2022-12-07T05:35:56;2.30;99.90
13296;DHT22;64850;60.390;-1.374;2022-12-07T05:38:21;2.20;99.90
13296;DHT22;64850;60.390;-1.374;2022-12-07T05:40:47;2.30;99.90
13296;DHT22;64850;60.390;-1.374;2022-12-07T05:43:13;2.30;99.90
13296;DHT22;64850;60.390;-1.374;2022-12-07T05:45:39;2.20;99.90
13296;DHT22;64850;60.390;-1.374;2022-12-07T05:48:05;2.20;99.90
13296;DHT22;64850;60.390;-1.374;2022-12-07T05:50:34;2.20;99.90
13296;DHT22;64850;60.390;-1.374;2022-12-07T05:53:00;2.20;99.90
13296;DHT22;64850;60.390;-1.374;2022-12-07T05:55:27;2.20;99.90
13296;DHT22;64850;60.390;-1.374;2022-12-07T05:57:53;2.40;99.90
13296;DHT22;64850;60.390;-1.374;2022-12-07T06:00:37;2.30;99.90
13296;DHT22;64850;60.390;-1.374;2022-12-07T06:03:03;2.30;99.90
13296;DHT22;64850;60.390;-1.374;2022-12-07T06:05:29;2.00;99.90
13296;DHT22;64850;60.390;-1.374;2022-12-07T06:07:55;1.70;99.90
13296;DHT22;64850;60.390;-1.374;2022-12-07T06:10:21;1.70;99.90
13296;DHT22;64850;60.390;-1.374;2022-12-07T06:12:47;1.60;99.90
13296;DHT22;64850;60.390;-1.374;2022-12-07T06:15:12;1.30;99.90
13296;DHT22;64850;60.390;-1.374;2022-12-07T06:17:39;1.30;99.90
13296;DHT22;64850;60.390;-1.374;2022-12-07T06:20:10;1.50;99.90
13296;DHT22;64850;60.390;-1.374;2022-12-07T06:22:35;1.70;99.90
13296;DHT22;64850;60.390;-1.374;2022-12-07T06:25:02;2.00;99.90
13296;DHT22;64850;60.390;-1.374;2022-12-07T06:27:29;2.20;99.90
13296;DHT22;64850;60.390;-1.374;2022-12-07T06:29:55;2.10;99.90
13296;DHT22;64850;60.390;-1.374;2022-12-07T06:32:21;2.10;99.90
13296;DHT22;64850;60.390;-1.374;2022-12-07T06:34:47;2.20;99.90
13296;DHT22;64850;60.390;-1.374;2022-12-07T06:37:13;1.90;99.90
13296;DHT22;64850;60.390;-1.374;2022-12-07T06:39:38;0.70;99.90
13296;DHT22;64850;60.390;-1.374;2022-12-07T06:42:04;0.30;99.90
13296;DHT22;64850;60.390;-1.374;2022-12-07T06:44:30;0.10;99.90
13296;DHT22;64850;60.390;-1.374;2022-12-07T06:46:56;0.50;99.90
13296;DHT22;64850;60.390;-1.374;2022-12-07T06:49:22;0.60;99.90
13296;DHT22;64850;60.390;-1.374;2022-12-07T06:51:48;0.80;99.90
13296;DHT22;64850;60.390;-1.374;2022-12-07T06:54:15;0.60;99.90
13296;DHT22;64850;60.390;-1.374;2022-12-07T06:56:41;0.50;99.90
13296;DHT22;64850;60.390;-1.374;2022-12-07T06:59:07;0.70;99.90
13296;DHT22;64850;60.390;-1.374;2022-12-07T07:01:34;0.70;99.90
13296;DHT22;64850;60.390;-1.374;2022-12-07T07:04:01;0.90;99.90
13296;DHT22;64850;60.390;-1.374;2022-12-07T07:06:27;1.10;99.90
13296;DHT22;64850;60.390;-1.374;2022-12-07T07:08:53;1.20;99.90
13296;DHT22;64850;60.390;-1.374;2022-12-07T07:11:19;1.50;99.90
13296;DHT22;64850;60.390;-1.374;2022-12-07T07:13:45;1.70;99.90
13296;DHT22;64850;60.390;-1.374;2022-12-07T07:16:12;1.80;99.90
13296;DHT22;64850;60.390;-1.374;2022-12-07T07:18:38;2.10;99.90
13296;DHT22;64850;60.390;-1.374;2022-12-07T07:21:04;2.00;99.90
13296;DHT22;64850;60.390;-1.374;2022-12-07T07:23:30;2.10;99.90
13296;DHT22;64850;60.390;-1.374;2022-12-07T07:25:56;0.50;99.90
13296;DHT22;64850;60.390;-1.374;2022-12-07T07:28:23;2.10;99.90
13296;DHT22;64850;60.390;-1.374;2022-12-07T07:30:52;2.10;99.90
13296;DHT22;64850;60.390;-1.374;2022-12-07T07:33:17;2.10;99.90
13296;DHT22;64850;60.390;-1.374;2022-12-07T07:35:43;2.20;99.90
13296;DHT22;64850;60.390;-1.374;2022-12-07T07:38:09;2.00;99.90
13296;DHT22;64850;60.390;-1.374;2022-12-07T07:40:35;2.10;99.90
13296;DHT22;64850;60.390;-1.374;2022-12-07T07:43:02;2.10;99.90
13296;DHT22;64850;60.390;-1.374;2022-12-07T07:45:28;2.10;99.90
13296;DHT22;64850;60.390;-1.374;2022-12-07T07:47:54;2.20;99.90
13296;DHT22;64850;60.390;-1.374;2022-12-07T07:50:20;2.00;99.90
13296;DHT22;64850;60.390;-1.374;2022-12-07T07:52:46;0.90;99.90
13296;DHT22;64850;60.390;-1.374;2022-12-07T07:55:13;0.60;99.90
13296;DHT22;64850;60.390;-1.374;2022-12-07T07:57:40;0.50;99.90
13296;DHT22;64850;60.390;-1.374;2022-12-07T08:00:09;0.70;99.90
13296;DHT22;64850;60.390;-1.374;2022-12-07T08:02:35;1.00;99.90
13296;DHT22;64850;60.390;-1.374;2022-12-07T08:05:01;-0.10;99.90
13296;DHT22;64850;60.390;-1.374;2022-12-07T08:07:28;1.10;99.90
13296;DHT22;64850;60.390;-1.374;2022-12-07T08:09:54;1.40;99.90
13296;DHT22;64850;60.390;-1.374;2022-12-07T08:12:20;1.40;99.90
13296;DHT22;64850;60.390;-1.374;2022-12-07T08:14:45;1.30;99.90
13296;DHT22;64850;60.390;-1.374;2022-12-07T08:17:12;1.50;99.90
13296;DHT22;64850;60.390;-1.374;2022-12-07T08:19:38;1.70;99.90
13296;DHT22;64850;60.390;-1.374;2022-12-07T08:22:04;1.20;99.90
13296;DHT22;64850;60.390;-1.374;2022-12-07T08:24:33;0.80;99.90
13296;DHT22;64850;60.390;-1.374;2022-12-07T08:26:59;0.80;99.90
13296;DHT22;64850;60.390;-1.374;2022-12-07T08:29:26;0.30;99.90
13296;DHT22;64850;60.390;-1.374;2022-12-07T08:31:52;0.20;99.90
13296;DHT22;64850;60.390;-1.374;2022-12-07T08:34:18;0.20;99.90
13296;DHT22;64850;60.390;-1.374;2022-12-07T08:36:44;0.30;99.90
13296;DHT22;64850;60.390;-1.374;2022-12-07T08:39:10;0.30;99.90
13296;DHT22;64850;60.390;-1.374;2022-12-07T08:41:36;0.40;99.90
13296;DHT22;64850;60.390;-1.374;2022-12-07T08:44:02;0.20;99.90
13296;DHT22;64850;60.390;-1.374;2022-12-07T08:46:38;0.30;99.90
13296;DHT22;64850;60.390;-1.374;2022-12-07T08:49:12;0.40;99.90
13296;DHT22;64850;60.390;-1.374;2022-12-07T08:51:40;0.50;99.90
13296;DHT22;64850;60.390;-1.374;2022-12-07T08:54:10;0.60;99.90
13296;DHT22;64850;60.390;-1.374;2022-12-07T08:56:36;0.20;99.90
13296;DHT22;64850;60.390;-1.374;2022-12-07T08:59:04;0.20;99.90
13296;DHT22;64850;60.390;-1.374;2022-12-07T09:01:30;0.10;99.90
13296;DHT22;64850;60.390;-1.374;2022-12-07T09:03:56;0.10;99.90
13296;DHT22;64850;60.390;-1.374;2022-12-07T09:06:22;-2.10;99.90
13296;DHT22;64850;60.390;-1.374;2022-12-07T09:08:51;-0.70;99.90
13296;DHT22;64850;60.390;-1.374;2022-12-07T09:11:18;-0.60;99.90
13296;DHT22;64850;60.390;-1.374;2022-12-07T09:13:44;0.60;99.90
13296;DHT22;64850;60.390;-1.374;2022-12-07T09:16:10;0.70;99.90
13296;DHT22;64850;60.390;-1.374;2022-12-07T09:18:37;0.70;99.90
13296;DHT22;64850;60.390;-1.374;2022-12-07T09:21:04;1.00;99.90
13296;DHT22;64850;60.390;-1.374;2022-12-07T09:23:30;0.90;99.90
13296;DHT22;64850;60.390;-1.374;2022-12-07T09:26:02;0.80;99.90
13296;DHT22;64850;60.390;-1.374;2022-12-07T09:28:30;0.90;99.90
13296;DHT22;64850;60.390;-1.374;2022-12-07T09:30:56;0.60;99.90
13296;DHT22;64850;60.390;-1.374;2022-12-07T09:33:23;-0.60;99.90
13296;DHT22;64850;60.390;-1.374;2022-12-07T09:35:50;0.60;99.90
13296;DHT22;64850;60.390;-1.374;2022-12-07T09:38:17;0.70;99.90
13296;DHT22;64850;60.390;-1.374;2022-12-07T09:40:43;0.80;99.90
13296;DHT22;64850;60.390;-1.374;2022-12-07T09:43:19;0.90;99.90
13296;DHT22;64850;60.390;-1.374;2022-12-07T09:45:47;0.50;99.90
13296;DHT22;64850;60.390;-1.374;2022-12-07T09:48:30;0.40;99.90
13296;DHT22;64850;60.390;-1.374;2022-12-07T09:50:58;0.70;99.90
13296;DHT22;64850;60.390;-1.374;2022-12-07T09:53:28;0.90;99.90
13296;DHT22;64850;60.390;-1.374;2022-12-07T09:55:55;1.00;99.90
13296;DHT22;64850;60.390;-1.374;2022-12-07T09:58:26;1.20;99.90
13296;DHT22;64850;60.390;-1.374;2022-12-07T10:01:01;1.30;99.90
13296;DHT22;64850;60.390;-1.374;2022-12-07T10:03:31;1.40;99.90
13296;DHT22;64850;60.390;-1.374;2022-12-07T10:05:57;1.40;99.90
13296;DHT22;64850;60.390;-1.374;2022-12-07T10:08:24;1.50;99.90
13296;DHT22;64850;60.390;-1.374;2022-12-07T10:10:57;1.50;99.90
13296;DHT22;64850;60.390;-1.374;2022-12-07T10:13:44;1.30;99.90
13296;DHT22;64850;60.390;-1.374;2022-12-07T10:18:50;0.90;99.90
13296;DHT22;64850;60.390;-1.374;2022-12-07T10:21:25;0.30;99.90
13296;DHT22;64850;60.390;-1.374;2022-12-07T10:24:14;0.00;99.90
13296;DHT22;64850;60.390;-1.374;2022-12-07T10:29:33;-0.30;99.90
13296;DHT22;64850;60.390;-1.374;2022-12-07T10:32:02;-0.20;99.90
13296;DHT22;64850;60.390;-1.374;2022-12-07T10:34:32;0.00;99.90
13296;DHT22;64850;60.390;-1.374;2022-12-07T10:37:19;0.20;99.90
13296;DHT22;64850;60.390;-1.374;2022-12-07T10:39:49;0.30;99.90
13296;DHT22;64850;60.390;-1.374;2022-12-07T10:42:31;0.50;99.90
13296;DHT22;64850;60.390;-1.374;2022-12-07T10:50:46;0.90;99.90
13296;DHT22;64850;60.390;-1.374;2022-12-07T11:04:21;0.60;99.90
13296;DHT22;64850;60.390;-1.374;2022-12-07T11:07:13;0.60;99.90
13296;DHT22;64850;60.390;-1.374;2022-12-07T11:09:45;0.60;99.90
13296;DHT22;64850;60.390;-1.374;2022-12-07T11:23:41;0.60;99.90
13296;DHT22;64850;60.390;-1.374;2022-12-07T11:29:22;-0.20;99.90
13296;DHT22;64850;60.390;-1.374;2022-12-07T11:37:40;0.50;99.90
13296;DHT22;64850;60.390;-1.374;2022-12-07T11:40:32;0.30;99.90
13296;DHT22;64850;60.390;-1.374;2022-12-07T11:45:42;-0.20;99.90
13296;DHT22;64850;60.390;-1.374;2022-12-07T11:48:22;-0.30;99.90
13296;DHT22;64850;60.390;-1.374;2022-12-07T11:50:56;-0.20;99.90
13296;DHT22;64850;60.390;-1.374;2022-12-07T11:53:46;-0.20;99.90
13296;DHT22;64850;60.390;-1.374;2022-12-07T11:56:21;-0.20;99.90
13296;DHT22;64850;60.390;-1.374;2022-12-07T11:58:52;-0.20;99.90
13296;DHT22;64850;60.390;-1.374;2022-12-07T12:01:26;0.10;99.90
13296;DHT22;64850;60.390;-1.374;2022-12-07T12:06:24;1.00;99.90
13296;DHT22;64850;60.390;-1.374;2022-12-07T12:09:04;1.20;99.90
13296;DHT22;64850;60.390;-1.374;2022-12-07T12:20:00;1.00;99.90
13296;DHT22;64850;60.390;-1.374;2022-12-07T12:22:43;1.00;99.90
13296;DHT22;64850;60.390;-1.374;2022-12-07T12:25:29;1.20;99.90
13296;DHT22;64850;60.390;-1.374;2022-12-07T12:27:58;1.00;99.90
13296;DHT22;64850;60.390;-1.374;2022-12-07T12:30:39;1.10;99.90
13296;DHT22;64850;60.390;-1.374;2022-12-07T12:33:16;1.00;99.90
13296;DHT22;64850;60.390;-1.374;2022-12-07T12:35:45;0.90;99.90
13296;DHT22;64850;60.390;-1.374;2022-12-07T12:38:33;1.00;99.90
13296;DHT22;64850;60.390;-1.374;2022-12-07T12:41:00;1.20;99.90
13296;DHT22;64850;60.390;-1.374;2022-12-07T12:43:50;1.30;99.90
13296;DHT22;64850;60.390;-1.374;2022-12-07T12:51:46;1.30;99.90
13296;DHT22;64850;60.390;-1.374;2022-12-07T12:57:05;1.30;99.90
13296;DHT22;64850;60.390;-1.374;2022-12-07T12:59:55;1.40;99.90
13296;DHT22;64850;60.390;-1.374;2022-12-07T13:02:35;1.30;99.90
13296;DHT22;64850;60.390;-1.374;2022-12-07T13:15:47;1.30;99.90
13296;DHT22;64850;60.390;-1.374;2022-12-07T13:23:27;0.90;99.90
13296;DHT22;64850;60.390;-1.374;2022-12-07T13:28:44;0.70;99.90
13296;DHT22;64850;60.390;-1.374;2022-12-07T13:33:58;1.10;99.90
13296;DHT22;64850;60.390;-1.374;2022-12-07T13:39:10;0.40;99.90
13296;DHT22;64850;60.390;-1.374;2022-12-07T13:41:36;0.60;99.90
13296;DHT22;64850;60.390;-1.374;2022-12-07T13:44:11;0.60;99.90
13296;DHT22;64850;60.390;-1.374;2022-12-07T13:51:50;0.10;99.90
13296;DHT22;64850;60.390;-1.374;2022-12-07T13:54:18;0.30;99.90
13296;DHT22;64850;60.390;-1.374;2022-12-07T13:56:49;-0.80;99.90
13296;DHT22;64850;60.390;-1.374;2022-12-07T13:59:20;-0.20;99.90
13296;DHT22;64850;60.390;-1.374;2022-12-07T14:01:48;2.10;99.90
13296;DHT22;64850;60.390;-1.374;2022-12-07T14:04:29;0.90;99.90
13296;DHT22;64850;60.390;-1.374;2022-12-07T14:06:56;0.80;99.90
13296;DHT22;64850;60.390;-1.374;2022-12-07T14:09:26;0.80;99.90
13296;DHT22;64850;60.390;-1.374;2022-12-07T14:11:56;1.40;99.90
13296;DHT22;64850;60.390;-1.374;2022-12-07T14:14:30;1.00;99.90
13296;DHT22;64850;60.390;-1.374;2022-12-07T14:19:45;1.10;99.90
13296;DHT22;64850;60.390;-1.374;2022-12-07T14:22:30;0.90;99.90
13296;DHT22;64850;60.390;-1.374;2022-12-07T14:25:17;0.80;99.90
13296;DHT22;64850;60.390;-1.374;2022-12-07T14:27:57;0.70;99.90
13296;DHT22;64850;60.390;-1.374;2022-12-07T14:30:34;0.70;99.90
13296;DHT22;64850;60.390;-1.374;2022-12-07T14:33:04;0.60;99.90
13296;DHT22;64850;60.390;-1.374;2022-12-07T14:35:31;0.30;99.90
13296;DHT22;64850;60.390;-1.374;2022-12-07T14:37:58;0.40;99.90
13296;DHT22;64850;60.390;-1.374;2022-12-07T14:40:27;0.70;99.90
13296;DHT22;64850;60.390;-1.374;2022-12-07T14:45:26;1.10;99.90
13296;DHT22;64850;60.390;-1.374;2022-12-07T14:47:52;1.30;99.90
13296;DHT22;64850;60.390;-1.374;2022-12-07T14:50:20;1.40;99.90
13296;DHT22;64850;60.390;-1.374;2022-12-07T14:52:54;1.40;99.90
13296;DHT22;64850;60.390;-1.374;2022-12-07T14:55:24;1.30;99.90
13296;DHT22;64850;60.390;-1.374;2022-12-07T14:57:51;1.40;99.90
13296;DHT22;64850;60.390;-1.374;2022-12-07T15:00:18;1.60;99.90
13296;DHT22;64850;60.390;-1.374;2022-12-07T15:02:46;1.60;99.90
13296;DHT22;64850;60.390;-1.374;2022-12-07T15:05:12;0.30;99.90
13296;DHT22;64850;60.390;-1.374;2022-12-07T15:07:39;1.50;99.90
13296;DHT22;64850;60.390;-1.374;2022-12-07T15:10:06;1.50;99.90
13296;DHT22;64850;60.390;-1.374;2022-12-07T15:12:32;1.50;99.90
13296;DHT22;64850;60.390;-1.374;2022-12-07T15:14:58;1.60;99.90
13296;DHT22;64850;60.390;-1.374;2022-12-07T15:17:24;1.10;99.90
13296;DHT22;64850;60.390;-1.374;2022-12-07T15:19:50;0.40;99.90
13296;DHT22;64850;60.390;-1.374;2022-12-07T15:22:15;1.40;99.90
13296;DHT22;64850;60.390;-1.374;2022-12-07T15:24:41;1.60;99.90
13296;DHT22;64850;60.390;-1.374;2022-12-07T15:27:07;1.90;99.90
13296;DHT22;64850;60.390;-1.374;2022-12-07T15:29:33;1.10;99.90
13296;DHT22;64850;60.390;-1.374;2022-12-07T15:31:59;0.90;99.90
13296;DHT22;64850;60.390;-1.374;2022-12-07T15:34:26;0.80;99.90
13296;DHT22;64850;60.390;-1.374;2022-12-07T15:36:54;0.80;99.90
13296;DHT22;64850;60.390;-1.374;2022-12-07T15:39:20;0.80;99.90
13296;DHT22;64850;60.390;-1.374;2022-12-07T15:41:47;1.00;99.90
13296;DHT22;64850;60.390;-1.374;2022-12-07T15:44:13;1.10;99.90
13296;DHT22;64850;60.390;-1.374;2022-12-07T15:46:57;1.20;99.90
13296;DHT22;64850;60.390;-1.374;2022-12-07T15:49:23;1.20;99.90
13296;DHT22;64850;60.390;-1.374;2022-12-07T15:51:49;1.40;99.90
13296;DHT22;64850;60.390;-1.374;2022-12-07T15:54:23;1.70;99.90
13296;DHT22;64850;60.390;-1.374;2022-12-07T15:56:50;1.80;99.90
13296;DHT22;64850;60.390;-1.374;2022-12-07T15:59:16;1.80;99.90
13296;DHT22;64850;60.390;-1.374;2022-12-07T16:01:42;1.70;99.90
13296;DHT22;64850;60.390;-1.374;2022-12-07T16:04:08;2.10;99.90
13296;DHT22;64850;60.390;-1.374;2022-12-07T16:06:34;1.80;99.90
13296;DHT22;64850;60.390;-1.374;2022-12-07T16:09:00;2.00;99.90
13296;DHT22;64850;60.390;-1.374;2022-12-07T16:11:26;1.50;99.90
13296;DHT22;64850;60.390;-1.374;2022-12-07T16:13:55;1.80;99.90
13296;DHT22;64850;60.390;-1.374;2022-12-07T16:16:21;1.20;99.90
13296;DHT22;64850;60.390;-1.374;2022-12-07T16:18:49;1.90;99.90
13296;DHT22;64850;60.390;-1.374;2022-12-07T16:21:16;1.70;99.90
13296;DHT22;64850;60.390;-1.374;2022-12-07T16:23:43;1.40;99.90
13296;DHT22;64850;60.390;-1.374;2022-12-07T16:26:15;1.00;99.90
13296;DHT22;64850;60.390;-1.374;2022-12-07T16:28:41;1.00;99.90
13296;DHT22;64850;60.390;-1.374;2022-12-07T16:31:12;0.70;99.90
13296;DHT22;64850;60.390;-1.374;2022-12-07T16:33:40;0.40;99.90
13296;DHT22;64850;60.390;-1.374;2022-12-07T16:36:09;0.30;99.90
13296;DHT22;64850;60.390;-1.374;2022-12-07T16:38:36;0.10;99.90
13296;DHT22;64850;60.390;-1.374;2022-12-07T16:41:04;-0.10;99.90
13296;DHT22;64850;60.390;-1.374;2022-12-07T16:43:30;-0.20;99.90
13296;DHT22;64850;60.390;-1.374;2022-12-07T16:45:56;-1.20;99.90
13296;DHT22;64850;60.390;-1.374;2022-12-07T16:48:22;0.20;99.90
13296;DHT22;64850;60.390;-1.374;2022-12-07T16:50:48;0.30;99.90
13296;DHT22;64850;60.390;-1.374;2022-12-07T16:53:14;0.60;99.90
13296;DHT22;64850;60.390;-1.374;2022-12-07T16:55:43;0.90;99.90
13296;DHT22;64850;60.390;-1.374;2022-12-07T16:58:13;1.20;99.90
13296;DHT22;64850;60.390;-1.374;2022-12-07T17:00:41;1.80;99.90
13296;DHT22;64850;60.390;-1.374;2022-12-07T17:03:08;1.50;99.90
13296;DHT22;64850;60.390;-1.374;2022-12-07T17:05:41;1.40;99.90
13296;DHT22;64850;60.390;-1.374;2022-12-07T17:08:07;0.80;99.90
13296;DHT22;64850;60.390;-1.374;2022-12-07T17:10:35;0.50;99.90
13296;DHT22;64850;60.390;-1.374;2022-12-07T17:13:03;0.30;99.90
13296;DHT22;64850;60.390;-1.374;2022-12-07T17:16:04;-0.10;99.90
13296;DHT22;64850;60.390;-1.374;2022-12-07T17:18:34;0.30;99.90
13296;DHT22;64850;60.390;-1.374;2022-12-07T17:21:06;0.30;99.90
13296;DHT22;64850;60.390;-1.374;2022-12-07T17:23:34;0.50;99.90
13296;DHT22;64850;60.390;-1.374;2022-12-07T17:26:06;0.80;99.90
13296;DHT22;64850;60.390;-1.374;2022-12-07T17:28:33;1.10;99.90
13296;DHT22;64850;60.390;-1.374;2022-12-07T17:30:59;0.50;99.90
13296;DHT22;64850;60.390;-1.374;2022-12-07T17:33:25;0.90;99.90
13296;DHT22;64850;60.390;-1.374;2022-12-07T17:35:51;1.50;99.90
13296;DHT22;64850;60.390;-1.374;2022-12-07T17:38:17;1.10;99.90
13296;DHT22;64850;60.390;-1.374;2022-12-07T17:40:43;1.10;99.90
13296;DHT22;64850;60.390;-1.374;2022-12-07T17:43:09;1.40;99.90
13296;DHT22;64850;60.390;-1.374;2022-12-07T17:45:36;1.70;99.90
13296;DHT22;64850;60.390;-1.374;2022-12-07T17:48:04;1.90;99.90
13296;DHT22;64850;60.390;-1.374;2022-12-07T17:50:30;2.00;99.90
13296;DHT22;64850;60.390;-1.374;2022-12-07T17:53:14;1.20;99.90
13296;DHT22;64850;60.390;-1.374;2022-12-07T17:55:40;2.40;99.90
13296;DHT22;64850;60.390;-1.374;2022-12-07T17:58:06;2.50;99.90
13296;DHT22;64850;60.390;-1.374;2022-12-07T18:00:32;2.40;99.90